Houlton, Houlton International Airport (KHUL)

NameHoulton International Airport
CityHoulton
CountryUnited States
ICAOKHUL
IATAHUL
Altitude149 m
CoordinatesGoogle Map
Live Air TrafficLiveATC.net
METARKHUL 240553Z AUTO 00000KT 10SM CLR 14/12 A2985 RMK AO2 SLP106 T01440122 10172 20139 51002
2019-07-24 05:53:00 Wind: North (0°) 0 m/s - Visibility: 16093.4 m - Temperature: 14 °C - Dew point: 12 °C - Humidity: 87.9% - Pressure: 1010.84 hPa
Statistics

The table below shows the detailed information of all flights to/from Houlton, Houlton International Airport (KHUL).